createdAt,value
2017-08-24T00:01:13.988Z,9.60
2017-08-24T00:03:41.465Z,9.60
2017-08-24T00:06:08.957Z,9.53
2017-08-24T00:08:36.507Z,9.77
2017-08-24T00:11:03.990Z,12.27
2017-08-24T00:13:31.440Z,9.87
2017-08-24T00:15:58.907Z,9.50
2017-08-24T00:18:26.360Z,9.20
2017-08-24T00:20:53.884Z,12.33
2017-08-24T00:23:21.749Z,8.77
2017-08-24T00:25:49.220Z,9.33
2017-08-24T00:28:16.686Z,11.23
2017-08-24T00:30:44.116Z,8.93
2017-08-24T00:33:11.599Z,10.97
2017-08-24T00:35:39.048Z,10.10
2017-08-24T00:52:52.653Z,10.93
2017-08-24T00:55:20.168Z,10.17
2017-08-24T00:57:47.661Z,9.67
2017-08-24T01:00:15.169Z,10.20
2017-08-24T01:02:42.630Z,9.77
2017-08-24T01:05:10.142Z,10.80
2017-08-24T01:07:37.620Z,14.70
2017-08-24T01:10:05.158Z,12.13
2017-08-24T01:12:33.104Z,10.57
2017-08-24T01:15:00.590Z,11.37
2017-08-24T01:17:28.052Z,10.73
2017-08-24T01:19:55.558Z,11.23
2017-08-24T01:22:23.002Z,10.93
2017-08-24T01:24:50.498Z,11.43
2017-08-24T01:27:18.689Z,10.33
2017-08-24T01:29:46.212Z,11.10
2017-08-24T01:32:13.712Z,10.33
2017-08-24T01:34:41.167Z,10.70
2017-08-24T01:37:08.667Z,12.30
2017-08-24T01:39:36.147Z,9.80
2017-08-24T01:42:03.661Z,10.83
2017-08-24T01:44:35.098Z,12.93
2017-08-24T01:47:02.625Z,10.57
2017-08-24T01:49:30.123Z,11.33
2017-08-24T01:51:57.597Z,12.00
2017-08-24T01:54:25.081Z,10.30
2017-08-24T01:56:52.543Z,11.20
2017-08-24T01:59:20.031Z,11.20
2017-08-24T02:01:47.582Z,12.20
2017-08-24T02:04:15.055Z,11.40
2017-08-24T02:06:43.067Z,11.60
2017-08-24T02:09:10.522Z,12.80
2017-08-24T02:11:38.006Z,11.80
2017-08-24T02:14:05.573Z,12.60
2017-08-24T02:16:33.096Z,11.10
2017-08-24T02:19:00.545Z,12.27
2017-08-24T02:21:28.011Z,12.30
2017-08-24T02:23:55.511Z,11.77
2017-08-24T02:26:22.978Z,10.20
2017-08-24T02:28:50.473Z,10.93
2017-08-24T02:31:17.910Z,10.50
2017-08-24T02:33:45.431Z,10.53
2017-08-24T02:36:16.864Z,10.93
2017-08-24T02:38:44.349Z,10.80
2017-08-24T02:41:11.842Z,11.73
2017-08-24T02:43:39.328Z,10.13
2017-08-24T02:46:06.812Z,9.53
2017-08-24T02:48:34.300Z,11.30
2017-08-24T02:51:01.868Z,9.80
2017-08-24T02:53:29.344Z,10.83
2017-08-24T02:55:56.812Z,10.10
2017-08-24T02:58:28.228Z,10.80
2017-08-24T03:00:55.734Z,10.03
2017-08-24T03:03:23.268Z,11.50
2017-08-24T03:05:50.776Z,10.87
2017-08-24T03:08:18.242Z,10.90
2017-08-24T03:10:45.739Z,10.67
2017-08-24T03:13:13.227Z,14.53
2017-08-24T03:15:40.718Z,11.20
2017-08-24T03:18:08.189Z,10.07
2017-08-24T03:20:36.549Z,10.40
2017-08-24T03:23:04.068Z,10.60
2017-08-24T03:25:31.585Z,10.60
2017-08-24T03:27:59.065Z,10.73
2017-08-24T03:30:26.566Z,10.30
2017-08-24T03:32:54.036Z,11.20
2017-08-24T03:35:21.653Z,10.00
2017-08-24T03:37:49.727Z,10.27
2017-08-24T03:40:17.188Z,11.50
2017-08-24T03:42:44.678Z,10.20
2017-08-24T03:45:12.136Z,11.10
2017-08-24T03:47:39.616Z,10.10
2017-08-24T03:50:07.119Z,10.70
2017-08-24T03:52:38.194Z,10.40
2017-08-24T03:55:05.677Z,10.43
2017-08-24T03:57:33.182Z,10.83
2017-08-24T04:00:00.676Z,10.97
2017-08-24T04:02:28.130Z,10.13
2017-08-24T04:04:55.609Z,11.27
2017-08-24T04:07:23.064Z,11.50
2017-08-24T04:09:50.570Z,11.00
2017-08-24T04:12:18.063Z,11.27
2017-08-24T04:14:45.628Z,9.60
2017-08-24T04:17:13.083Z,10.33
2017-08-24T04:19:40.547Z,12.60
2017-08-24T04:22:08.077Z,10.00
2017-08-24T04:24:36.314Z,10.77
2017-08-24T04:27:07.811Z,10.80
2017-08-24T04:29:35.270Z,10.10
2017-08-24T04:32:02.779Z,11.03
2017-08-24T04:34:31.071Z,10.80
2017-08-24T04:36:58.599Z,10.20
2017-08-24T04:39:26.105Z,12.97
2017-08-24T04:41:53.594Z,11.70
2017-08-24T04:44:21.104Z,11.57
2017-08-24T04:46:48.603Z,13.30
2017-08-24T04:49:16.079Z,12.50
2017-08-24T04:51:43.572Z,12.37
2017-08-24T04:54:11.071Z,12.00
2017-08-24T04:56:39.133Z,16.20
2017-08-24T04:59:06.588Z,13.67
2017-08-24T05:01:34.083Z,13.73
2017-08-24T05:04:01.606Z,13.03
2017-08-24T05:06:29.089Z,13.70
2017-08-24T05:08:56.548Z,17.07
2017-08-24T05:11:24.025Z,15.10
2017-08-24T05:13:51.531Z,16.87
2017-08-24T05:16:18.992Z,19.90
2017-08-24T05:18:47.121Z,17.40
2017-08-24T05:21:14.651Z,16.50
2017-08-24T05:23:42.117Z,17.90
2017-08-24T05:26:13.466Z,14.90
2017-08-24T05:28:40.920Z,15.37
2017-08-24T05:31:08.382Z,16.03
2017-08-24T05:33:35.900Z,15.67
2017-08-24T05:36:07.763Z,15.27
2017-08-24T05:38:35.292Z,15.03
2017-08-24T05:41:02.750Z,15.73
2017-08-24T05:43:31.002Z,15.87
2017-08-24T05:45:58.488Z,15.23
2017-08-24T05:48:26.000Z,15.20
2017-08-24T05:50:53.537Z,14.97
2017-08-24T05:53:21.033Z,15.60
2017-08-24T05:55:48.507Z,16.37
2017-08-24T05:58:15.994Z,18.53
2017-08-24T06:00:43.515Z,15.13
2017-08-24T06:03:11.017Z,15.07
2017-08-24T06:05:38.514Z,15.97
2017-08-24T06:08:05.995Z,15.83
2017-08-24T06:10:33.504Z,14.17
2017-08-24T06:13:01.006Z,15.30
2017-08-24T06:15:28.490Z,15.27
2017-08-24T06:17:56.014Z,13.53
2017-08-24T06:20:23.485Z,14.83
2017-08-24T06:22:51.737Z,12.50
2017-08-24T06:25:19.245Z,13.10
2017-08-24T06:27:46.746Z,13.70
2017-08-24T06:30:14.224Z,24.27
2017-08-24T06:32:41.691Z,12.93
2017-08-24T06:35:09.935Z,14.07
2017-08-24T06:37:37.398Z,15.83
2017-08-24T06:40:05.119Z,15.93
2017-08-24T06:42:32.614Z,14.90
2017-08-24T06:45:00.098Z,14.87
2017-08-24T06:47:27.570Z,14.80
2017-08-24T06:49:55.085Z,14.33
2017-08-24T06:52:22.572Z,13.73
2017-08-24T06:54:50.060Z,13.13
2017-08-24T06:57:17.550Z,14.20
2017-08-24T06:59:45.043Z,14.57
2017-08-24T07:02:12.557Z,13.03
2017-08-24T07:04:40.011Z,13.63
2017-08-24T07:07:07.507Z,13.03
2017-08-24T07:09:35.904Z,13.90
2017-08-24T07:12:03.442Z,11.73
2017-08-24T07:14:30.970Z,13.63
2017-08-24T07:16:58.437Z,13.30
2017-08-24T07:19:25.948Z,13.70
2017-08-24T07:21:53.422Z,13.03
2017-08-24T07:24:20.912Z,13.07
2017-08-24T07:26:48.438Z,12.57
2017-08-24T07:29:15.966Z,13.47
2017-08-24T07:31:43.652Z,14.13
2017-08-24T07:34:11.099Z,14.27
2017-08-24T07:36:38.582Z,13.00
2017-08-24T07:39:06.058Z,13.27
2017-08-24T07:41:33.591Z,12.73
2017-08-24T07:44:01.160Z,12.43
2017-08-24T07:46:28.626Z,12.83
2017-08-24T07:48:56.122Z,15.17
2017-08-24T07:51:23.618Z,13.00
2017-08-24T07:53:51.142Z,13.50
2017-08-24T07:56:18.606Z,13.40
2017-08-24T07:58:46.919Z,12.63
2017-08-24T08:01:14.394Z,15.10
2017-08-24T08:03:41.939Z,14.13
2017-08-24T08:06:10.258Z,11.60
2017-08-24T08:08:37.704Z,14.17
2017-08-24T08:11:05.269Z,13.57
2017-08-24T08:13:32.726Z,13.80
2017-08-24T08:16:00.235Z,13.57
2017-08-24T08:18:27.738Z,16.37
2017-08-24T08:20:55.201Z,14.30
2017-08-24T08:23:22.652Z,12.40
2017-08-24T08:25:50.165Z,12.23
2017-08-24T08:28:17.664Z,14.73
2017-08-24T08:30:45.159Z,13.77
2017-08-24T08:33:12.639Z,12.67
2017-08-24T08:35:40.116Z,14.97
2017-08-24T08:38:07.672Z,12.63
2017-08-24T08:40:35.138Z,11.43
2017-08-24T08:43:02.627Z,12.93
2017-08-24T08:45:30.113Z,12.20
2017-08-24T08:47:57.760Z,13.10
2017-08-24T08:50:25.211Z,13.20
2017-08-24T08:52:56.330Z,13.50
2017-08-24T08:55:23.845Z,13.33
2017-08-24T08:57:51.366Z,14.57
2017-08-24T09:00:18.845Z,11.30
2017-08-24T09:02:46.349Z,12.80
2017-08-24T09:05:13.832Z,13.00
2017-08-24T09:07:41.330Z,10.40
2017-08-24T09:10:08.825Z,9.27
2017-08-24T09:12:36.282Z,11.70
2017-08-24T09:15:03.766Z,9.57
2017-08-24T09:17:31.249Z,11.67
2017-08-24T09:19:58.752Z,10.33
2017-08-24T09:22:26.233Z,6.80
2017-08-24T09:24:53.706Z,5.87
2017-08-24T09:27:21.200Z,5.47
2017-08-24T09:29:48.682Z,8.57
2017-08-24T09:32:16.158Z,4.23
2017-08-24T09:34:43.636Z,5.43
2017-08-24T09:37:11.876Z,5.03
2017-08-24T09:39:39.360Z,4.83
2017-08-24T09:42:06.836Z,4.77
2017-08-24T09:44:34.342Z,4.50
2017-08-24T09:47:01.933Z,6.27
2017-08-24T09:49:29.417Z,4.97
2017-08-24T09:51:56.879Z,5.13
2017-08-24T09:54:24.398Z,5.53
2017-08-24T09:56:51.891Z,6.40
2017-08-24T09:59:19.435Z,6.90
2017-08-24T10:01:46.924Z,5.13
2017-08-24T10:04:14.382Z,3.80
2017-08-24T10:06:41.874Z,4.23
2017-08-24T10:09:09.391Z,7.70
2017-08-24T10:11:36.845Z,4.77
2017-08-24T10:14:04.327Z,4.33
2017-08-24T10:16:31.801Z,3.60
2017-08-24T10:18:59.417Z,5.53
2017-08-24T10:21:26.928Z,6.33
2017-08-24T10:23:54.409Z,4.27
2017-08-24T10:26:21.848Z,5.00
2017-08-24T10:28:49.479Z,6.00
2017-08-24T10:31:16.983Z,5.17
2017-08-24T10:33:44.414Z,5.00
2017-08-24T10:36:11.971Z,4.03
2017-08-24T10:38:39.473Z,4.10
2017-08-24T10:41:06.931Z,7.47
2017-08-24T10:43:34.456Z,4.40
2017-08-24T10:46:01.930Z,5.43
2017-08-24T10:48:29.531Z,4.73
2017-08-24T10:50:57.020Z,4.70
2017-08-24T10:53:24.505Z,4.97
2017-08-24T10:55:51.997Z,6.10
2017-08-24T10:58:19.477Z,4.00
2017-08-24T11:00:46.937Z,4.30
2017-08-24T11:03:14.416Z,4.33
2017-08-24T11:05:41.922Z,4.20
2017-08-24T11:08:09.424Z,6.03
2017-08-24T11:10:36.923Z,5.33
2017-08-24T11:13:04.365Z,6.20
2017-08-24T11:15:31.909Z,5.73
2017-08-24T11:17:59.457Z,4.57
2017-08-24T11:20:26.941Z,4.40
2017-08-24T11:22:54.449Z,4.63
2017-08-24T11:25:21.942Z,5.13
2017-08-24T11:27:49.421Z,5.50
2017-08-24T11:30:16.879Z,4.47
2017-08-24T11:32:44.373Z,5.47
2017-08-24T11:35:11.824Z,4.40
2017-08-24T11:37:39.329Z,4.53
2017-08-24T11:40:06.808Z,5.57
2017-08-24T11:42:34.273Z,7.87
2017-08-24T11:45:01.778Z,4.20
2017-08-24T11:47:29.231Z,3.80
2017-08-24T11:49:56.696Z,5.00
2017-08-24T11:52:24.483Z,4.30
2017-08-24T11:54:51.992Z,4.87
2017-08-24T11:57:19.469Z,5.33
2017-08-24T11:59:46.945Z,6.57
2017-08-24T12:02:14.432Z,4.00
2017-08-24T12:04:41.890Z,6.77
2017-08-24T12:07:09.402Z,6.87
2017-08-24T12:09:36.901Z,4.50
2017-08-24T12:12:04.408Z,4.60
2017-08-24T12:14:31.858Z,4.80
2017-08-24T12:16:59.358Z,4.87
2017-08-24T12:19:26.841Z,3.97
2017-08-24T12:21:54.344Z,4.53
2017-08-24T12:24:21.862Z,3.30
2017-08-24T12:26:49.325Z,6.10
2017-08-24T12:29:16.819Z,3.77
2017-08-24T12:31:44.288Z,3.40
2017-08-24T12:34:11.793Z,3.80
2017-08-24T12:36:39.315Z,4.60
2017-08-24T12:39:06.805Z,4.13
2017-08-24T12:41:34.278Z,5.13
2017-08-24T12:44:01.742Z,3.90
2017-08-24T12:46:29.262Z,3.90
2017-08-24T12:48:56.738Z,5.53
2017-08-24T12:51:24.191Z,5.13
2017-08-24T12:53:51.719Z,3.53
2017-08-24T12:56:19.255Z,4.20
2017-08-24T12:58:46.745Z,5.10
2017-08-24T13:01:14.212Z,3.80
2017-08-24T13:03:41.683Z,4.10
2017-08-24T13:06:09.158Z,5.43
2017-08-24T13:08:36.652Z,3.40
2017-08-24T13:11:04.200Z,3.73
2017-08-24T13:13:31.714Z,3.43
2017-08-24T13:16:03.142Z,7.93
2017-08-24T13:18:30.671Z,3.50
2017-08-24T13:20:58.163Z,4.43
2017-08-24T13:23:25.609Z,3.40
2017-08-24T13:25:53.128Z,4.83
2017-08-24T13:28:20.580Z,4.33
2017-08-24T13:30:48.056Z,6.20
2017-08-24T13:33:15.550Z,2.93
2017-08-24T13:35:43.026Z,4.50
2017-08-24T13:38:10.529Z,3.63
2017-08-24T13:40:38.076Z,4.00
2017-08-24T13:43:05.584Z,3.83
2017-08-24T13:45:33.072Z,3.53
2017-08-24T13:48:01.307Z,4.20
2017-08-24T13:50:28.772Z,3.50
2017-08-24T13:52:56.250Z,3.00
2017-08-24T13:55:23.717Z,3.10
2017-08-24T13:57:51.161Z,3.87
2017-08-24T14:00:19.440Z,2.70
2017-08-24T14:02:46.928Z,2.97
2017-08-24T14:05:14.440Z,4.47
2017-08-24T14:07:41.901Z,3.27
2017-08-24T14:10:09.347Z,2.73
2017-08-24T14:12:36.950Z,2.83
2017-08-24T14:15:04.441Z,3.47
2017-08-24T14:17:31.974Z,3.07
2017-08-24T14:19:59.471Z,2.97
2017-08-24T14:22:26.979Z,4.17
2017-08-24T14:24:54.488Z,4.23
2017-08-24T14:27:22.052Z,2.80
2017-08-24T14:29:49.542Z,2.90
2017-08-24T14:32:17.041Z,6.40
2017-08-24T14:34:44.530Z,2.97
2017-08-24T14:37:12.081Z,2.87
2017-08-24T14:39:39.540Z,2.57
2017-08-24T14:42:07.003Z,2.90
2017-08-24T14:44:34.564Z,3.50
2017-08-24T14:47:02.036Z,7.17
2017-08-24T14:49:29.613Z,2.63
2017-08-24T14:51:57.089Z,4.57
2017-08-24T14:54:24.650Z,3.97
2017-08-24T14:56:52.149Z,3.20
2017-08-24T14:59:19.660Z,3.13
2017-08-24T15:01:47.098Z,2.60
2017-08-24T15:04:14.585Z,5.47
2017-08-24T15:06:42.101Z,3.13
2017-08-24T15:09:09.570Z,8.90
2017-08-24T15:11:37.083Z,2.20
2017-08-24T15:14:04.588Z,3.33
2017-08-24T15:16:32.062Z,4.80
2017-08-24T15:18:59.619Z,2.50
2017-08-24T15:21:27.178Z,2.87
2017-08-24T15:23:55.490Z,2.60
2017-08-24T15:26:23.062Z,3.20
2017-08-24T15:28:50.640Z,3.00
2017-08-24T15:31:18.165Z,4.13
2017-08-24T15:33:47.157Z,2.90
2017-08-24T15:36:14.629Z,2.63
2017-08-24T15:38:42.089Z,3.07
2017-08-24T15:41:09.613Z,2.57
2017-08-24T15:43:41.073Z,2.70
2017-08-24T15:46:08.556Z,2.20
2017-08-24T15:48:36.060Z,2.63
2017-08-24T15:51:03.534Z,3.03
2017-08-24T15:53:31.036Z,1.90
2017-08-24T15:55:58.532Z,2.30
2017-08-24T15:58:26.463Z,1.93
2017-08-24T16:00:53.966Z,2.53
2017-08-24T16:03:22.205Z,2.67
2017-08-24T16:05:49.714Z,2.17
2017-08-24T16:08:17.170Z,2.00
2017-08-24T16:10:45.436Z,2.60
2017-08-24T16:13:12.919Z,2.03
2017-08-24T16:15:43.209Z,1.87
2017-08-24T16:18:10.941Z,3.87
2017-08-24T16:20:38.445Z,3.97
2017-08-24T16:23:06.672Z,2.70
2017-08-24T16:25:34.193Z,4.10
2017-08-24T16:28:01.699Z,3.50
2017-08-24T16:30:29.180Z,3.67
2017-08-24T16:32:57.175Z,6.10
2017-08-24T16:35:24.660Z,2.80
2017-08-24T16:37:52.137Z,2.87
2017-08-24T16:40:19.706Z,2.60
2017-08-24T16:42:47.264Z,3.20
2017-08-24T16:45:14.768Z,6.03
2017-08-24T16:47:42.308Z,2.90
2017-08-24T16:50:09.788Z,7.10
2017-08-24T16:52:37.299Z,2.47
2017-08-24T16:55:04.809Z,3.40
2017-08-24T16:57:32.310Z,3.73
2017-08-24T16:59:59.844Z,2.93
2017-08-24T17:02:27.442Z,2.67
2017-08-24T17:04:54.900Z,2.63
2017-08-24T17:07:22.369Z,2.73
2017-08-24T17:09:49.886Z,2.67
2017-08-24T17:12:17.370Z,4.03
2017-08-24T17:14:44.884Z,3.00
2017-08-24T17:17:12.376Z,2.77
2017-08-24T17:19:39.876Z,5.40
2017-08-24T17:22:07.410Z,4.17
2017-08-24T17:24:34.880Z,3.23
2017-08-24T17:27:02.400Z,6.43
2017-08-24T17:29:29.989Z,2.40
2017-08-24T17:31:57.563Z,2.63
2017-08-24T17:34:25.892Z,2.53
2017-08-24T17:36:53.383Z,2.23
2017-08-24T17:39:20.889Z,5.50
2017-08-24T17:41:48.361Z,2.27
2017-08-24T17:44:15.940Z,2.10
2017-08-24T17:46:43.424Z,4.87
2017-08-24T17:49:10.919Z,3.33
2017-08-24T17:51:38.385Z,2.20
2017-08-24T17:54:05.906Z,4.20
2017-08-24T17:56:33.425Z,2.30
2017-08-24T17:59:00.895Z,4.77
2017-08-24T18:01:29.126Z,2.27
2017-08-24T18:03:57.213Z,3.73
2017-08-24T18:06:24.654Z,3.63
2017-08-24T18:08:52.148Z,2.97
2017-08-24T18:11:19.662Z,2.40
2017-08-24T18:13:47.165Z,2.03
2017-08-24T18:16:14.650Z,2.93
2017-08-24T18:18:42.184Z,2.97
2017-08-24T18:21:09.798Z,3.17
2017-08-24T18:23:37.319Z,4.40
2017-08-24T18:26:05.037Z,3.93
2017-08-24T18:28:32.510Z,4.67
2017-08-24T18:30:59.998Z,2.87
2017-08-24T18:33:27.504Z,5.60
2017-08-24T18:35:55.028Z,2.43
2017-08-24T18:38:22.518Z,2.63
2017-08-24T18:40:50.057Z,4.13
2017-08-24T18:43:17.542Z,3.57
2017-08-24T18:45:45.068Z,3.40
2017-08-24T18:48:12.575Z,4.47
2017-08-24T18:50:40.177Z,3.03
2017-08-24T18:53:08.425Z,3.27
2017-08-24T18:55:35.888Z,4.80
2017-08-24T18:58:03.910Z,4.97
2017-08-24T19:00:32.227Z,6.97
2017-08-24T19:02:59.720Z,3.67
2017-08-24T19:05:27.280Z,3.83
2017-08-24T19:07:54.806Z,5.90
2017-08-24T19:10:22.314Z,4.70
2017-08-24T19:12:49.872Z,4.37
2017-08-24T19:15:17.381Z,3.70
2017-08-24T19:17:44.904Z,4.00
2017-08-24T19:20:12.398Z,4.63
2017-08-24T19:22:39.933Z,3.77
2017-08-24T19:25:07.515Z,4.20
2017-08-24T19:27:34.974Z,3.50
2017-08-24T19:30:02.451Z,3.60
2017-08-24T19:32:29.971Z,8.50
2017-08-24T19:34:57.512Z,5.43
2017-08-24T19:37:25.076Z,5.07
2017-08-24T19:39:52.546Z,4.10
2017-08-24T19:42:20.042Z,3.90
2017-08-24T19:44:47.548Z,5.00
2017-08-24T19:47:15.117Z,5.20
2017-08-24T19:49:42.600Z,4.23
2017-08-24T19:52:10.179Z,4.30
2017-08-24T19:54:37.711Z,5.67
2017-08-24T19:57:05.144Z,4.10
2017-08-24T19:59:32.605Z,4.77
2017-08-24T20:02:00.117Z,4.03
2017-08-24T20:04:27.607Z,3.90
2017-08-24T20:06:55.076Z,5.00
2017-08-24T20:09:22.599Z,6.57
2017-08-24T20:11:50.045Z,10.00
2017-08-24T20:14:17.501Z,3.97
2017-08-24T20:16:44.997Z,4.57
2017-08-24T20:19:12.556Z,4.80
2017-08-24T20:21:40.042Z,4.50
2017-08-24T20:24:07.517Z,4.80
2017-08-24T20:26:35.010Z,7.97
2017-08-24T20:29:02.485Z,4.43
2017-08-24T20:31:30.049Z,6.60
2017-08-24T20:33:57.550Z,5.00
2017-08-24T20:36:25.054Z,5.47
2017-08-24T20:38:52.531Z,6.20
2017-08-24T20:41:20.055Z,7.03
2017-08-24T20:43:47.530Z,3.93
2017-08-24T20:46:15.058Z,5.83
2017-08-24T20:48:42.565Z,5.63
2017-08-24T20:51:10.039Z,8.37
2017-08-24T20:53:37.533Z,5.27
2017-08-24T20:56:05.697Z,5.23
2017-08-24T20:58:33.826Z,5.50
2017-08-24T21:01:01.292Z,4.77
2017-08-24T21:03:28.796Z,6.07
2017-08-24T21:05:56.256Z,5.10
2017-08-24T21:08:23.773Z,6.57
2017-08-24T21:10:51.482Z,5.53
2017-08-24T21:13:18.953Z,5.77
2017-08-24T21:15:46.497Z,5.03
2017-08-24T21:18:13.987Z,5.50
2017-08-24T21:20:41.528Z,5.37
2017-08-24T21:23:09.010Z,10.03
2017-08-24T21:25:36.534Z,10.73
2017-08-24T21:28:04.030Z,6.40
2017-08-24T21:30:31.548Z,6.10
2017-08-24T21:32:59.049Z,9.40
2017-08-24T21:35:26.556Z,10.30
2017-08-24T21:37:54.097Z,5.40
2017-08-24T21:40:21.557Z,5.33
2017-08-24T21:42:49.075Z,8.13
2017-08-24T21:45:16.539Z,6.43
2017-08-24T21:47:44.063Z,7.97
2017-08-24T21:50:11.528Z,6.40
2017-08-24T21:52:39.034Z,7.10
2017-08-24T21:55:06.489Z,9.20
2017-08-24T21:57:34.100Z,6.47
2017-08-24T22:00:01.597Z,7.90
2017-08-24T22:02:29.081Z,8.53
2017-08-24T22:04:56.585Z,8.30
2017-08-24T22:07:24.061Z,8.30
2017-08-24T22:09:51.551Z,6.23
2017-08-24T22:12:19.049Z,7.00
2017-08-24T22:14:46.616Z,7.03
2017-08-24T22:17:14.148Z,8.00
2017-08-24T22:19:41.633Z,6.87
2017-08-24T22:22:09.134Z,6.47
2017-08-24T22:24:37.331Z,7.17
2017-08-24T22:27:04.790Z,6.50
2017-08-24T22:29:32.284Z,9.70
2017-08-24T22:31:59.751Z,6.60
2017-08-24T22:34:27.214Z,6.70
2017-08-24T22:36:54.711Z,8.00
2017-08-24T22:39:22.176Z,8.03
2017-08-24T22:41:49.750Z,8.73
2017-08-24T22:44:17.253Z,7.37
2017-08-24T22:46:45.543Z,6.83
2017-08-24T22:49:12.993Z,10.40
2017-08-24T22:51:40.453Z,7.60
2017-08-24T22:54:13.661Z,8.10
2017-08-24T22:57:01.045Z,8.00
2017-08-24T22:59:34.244Z,7.57
2017-08-24T23:02:07.418Z,8.90
2017-08-24T23:04:34.909Z,7.93
2017-08-24T23:07:02.406Z,6.80
2017-08-24T23:09:29.896Z,7.07
2017-08-24T23:11:57.400Z,7.70
2017-08-24T23:14:24.873Z,7.40
2017-08-24T23:16:52.373Z,8.30
2017-08-24T23:19:19.903Z,9.60
2017-08-24T23:21:47.373Z,10.20
2017-08-24T23:24:14.881Z,7.20
2017-08-24T23:26:42.347Z,10.90
2017-08-24T23:29:09.840Z,10.23
2017-08-24T23:31:37.319Z,6.60
2017-08-24T23:34:04.800Z,12.87
2017-08-24T23:36:32.265Z,7.03
2017-08-24T23:38:59.872Z,6.43
2017-08-24T23:41:27.337Z,6.83
2017-08-24T23:43:54.786Z,9.70
2017-08-24T23:46:22.260Z,5.90
2017-08-24T23:48:49.757Z,7.43
2017-08-24T23:51:17.765Z,6.57
2017-08-24T23:53:45.262Z,5.53
2017-08-24T23:56:12.723Z,7.00
2017-08-24T23:58:40.966Z,5.60
